createdAt,value
2023-02-14T00:01:26.728Z,3.28
2023-02-14T00:04:17.397Z,3.30
2023-02-14T00:07:01.533Z,3.58
2023-02-14T00:09:39.813Z,3.70
2023-02-14T00:12:09.423Z,3.40
2023-02-14T00:14:57.520Z,3.30
2023-02-14T00:17:27.204Z,3.92
2023-02-14T00:19:55.450Z,3.92
2023-02-14T00:22:24.457Z,3.53
2023-02-14T00:24:53.206Z,3.72
2023-02-14T00:27:21.614Z,4.50
2023-02-14T00:29:49.981Z,3.80
2023-02-14T00:32:19.440Z,4.00
2023-02-14T00:35:07.788Z,4.85
2023-02-14T00:41:09.812Z,7.93
2023-02-14T00:43:57.501Z,8.18
2023-02-14T00:46:45.219Z,8.98
2023-02-14T00:49:35.265Z,8.13
2023-02-14T00:52:22.865Z,8.13
2023-02-14T00:55:10.491Z,9.23
2023-02-14T00:57:44.520Z,12.05
2023-02-14T01:00:18.517Z,11.65
2023-02-14T01:03:08.351Z,10.80
2023-02-14T01:05:37.553Z,6.88
2023-02-14T01:08:06.784Z,6.05
2023-02-14T01:10:38.749Z,5.32
2023-02-14T01:13:09.420Z,5.70
2023-02-14T01:15:46.125Z,6.78
2023-02-14T01:18:14.892Z,7.30
2023-02-14T01:20:51.251Z,8.18
2023-02-14T01:23:40.593Z,9.23
2023-02-14T01:26:27.964Z,9.63
2023-02-14T01:28:58.961Z,10.63
2023-02-14T01:31:31.845Z,10.13
2023-02-14T01:34:04.703Z,9.63
2023-02-14T01:36:40.258Z,9.38
2023-02-14T01:39:11.442Z,9.73
2023-02-14T01:41:43.070Z,10.88
2023-02-14T01:44:17.353Z,10.43
2023-02-14T01:46:48.505Z,7.90
2023-02-14T01:49:33.260Z,6.47
2023-02-14T01:52:15.854Z,7.30
2023-02-14T01:55:18.958Z,6.70
2023-02-14T01:58:10.117Z,6.60
2023-02-14T02:00:59.793Z,5.00
2023-02-14T02:03:41.343Z,4.68
2023-02-14T02:06:48.664Z,5.60
2023-02-14T02:09:21.234Z,5.50
2023-02-14T02:11:56.986Z,5.65
2023-02-14T02:14:27.822Z,5.03
2023-02-14T02:17:03.893Z,4.95
2023-02-14T02:20:04.053Z,6.22
2023-02-14T02:22:47.530Z,6.40
2023-02-14T02:25:29.182Z,5.32
2023-02-14T02:27:59.946Z,6.28
2023-02-14T02:30:34.231Z,6.30
2023-02-14T02:33:20.909Z,7.05
2023-02-14T02:35:54.039Z,6.40
2023-02-14T02:38:41.794Z,7.28
2023-02-14T02:41:09.998Z,7.07
2023-02-14T02:43:41.756Z,6.75
2023-02-14T02:46:34.539Z,7.72
2023-02-14T02:49:35.910Z,6.38
2023-02-14T02:52:22.925Z,7.55
2023-02-14T02:54:59.993Z,7.28
2023-02-14T02:57:32.757Z,7.93
2023-02-14T03:00:12.488Z,7.85
2023-02-14T03:03:21.361Z,7.35
2023-02-14T03:06:02.393Z,6.85
2023-02-14T03:08:40.827Z,6.63
2023-02-14T03:11:17.600Z,7.65
2023-02-14T03:14:05.179Z,7.25
2023-02-14T03:16:56.528Z,7.65
2023-02-14T03:19:34.646Z,7.80
2023-02-14T03:22:06.150Z,7.93
2023-02-14T03:24:52.470Z,7.13
2023-02-14T03:27:23.825Z,7.68
2023-02-14T03:30:00.694Z,6.90
2023-02-14T03:32:47.501Z,7.63
2023-02-14T03:35:16.165Z,7.85
2023-02-14T03:37:53.899Z,7.38
2023-02-14T03:40:25.596Z,7.40
2023-02-14T03:43:02.019Z,7.88
2023-02-14T03:45:35.687Z,7.45
2023-02-14T03:48:06.865Z,7.00
2023-02-14T03:50:39.689Z,7.57
2023-02-14T03:53:09.471Z,7.82
2023-02-14T03:55:45.910Z,8.82
2023-02-14T03:58:22.248Z,7.88
2023-02-14T04:00:54.112Z,7.78
2023-02-14T04:03:33.307Z,8.65
2023-02-14T04:06:04.279Z,8.63
2023-02-14T04:08:33.988Z,9.10
2023-02-14T04:11:03.729Z,9.45
2023-02-14T04:13:36.244Z,9.77
2023-02-14T04:16:05.110Z,8.73
2023-02-14T04:18:51.153Z,9.15
2023-02-14T04:21:26.062Z,8.70
2023-02-14T04:24:16.127Z,9.18
2023-02-14T04:27:12.679Z,10.35
2023-02-14T04:29:42.030Z,9.65
2023-02-14T04:32:15.002Z,9.35
2023-02-14T04:34:45.950Z,10.05
2023-02-14T04:37:18.149Z,9.57
2023-02-14T04:40:05.977Z,9.55
2023-02-14T04:42:36.592Z,9.18
2023-02-14T04:45:05.214Z,9.30
2023-02-14T04:47:47.817Z,10.05
2023-02-14T04:50:16.801Z,9.60
2023-02-14T04:52:47.841Z,9.27
2023-02-14T04:55:20.186Z,10.00
2023-02-14T04:57:51.695Z,10.38
2023-02-14T05:00:22.340Z,8.90
2023-02-14T05:03:10.150Z,9.32
2023-02-14T05:05:57.817Z,10.82
2023-02-14T05:08:45.477Z,10.18
2023-02-14T05:11:16.965Z,10.07
2023-02-14T05:13:53.152Z,9.35
2023-02-14T05:16:39.171Z,10.40
2023-02-14T05:19:14.460Z,11.35
2023-02-14T05:21:57.489Z,10.80
2023-02-14T05:24:38.893Z,11.20
2023-02-14T05:27:26.476Z,10.20
2023-02-14T05:30:14.458Z,10.02
2023-02-14T05:33:04.559Z,10.77
2023-02-14T05:35:49.278Z,9.90
2023-02-14T05:38:37.037Z,11.10
2023-02-14T05:41:19.956Z,9.82
2023-02-14T05:43:51.092Z,11.60
2023-02-14T05:48:50.964Z,11.48
2023-02-14T05:51:20.345Z,12.27
2023-02-14T05:53:50.957Z,12.60
2023-02-14T05:56:38.596Z,12.50
2023-02-14T05:59:26.253Z,12.45
2023-02-14T06:02:10.961Z,13.52
2023-02-14T06:04:44.350Z,13.73
2023-02-14T06:07:34.274Z,12.95
2023-02-14T06:10:14.175Z,12.85
2023-02-14T06:12:51.415Z,11.70
2023-02-14T06:15:31.860Z,12.52
2023-02-14T06:18:01.410Z,13.65
2023-02-14T06:20:33.502Z,13.02
2023-02-14T06:23:05.119Z,14.43
2023-02-14T06:25:51.045Z,14.07
2023-02-14T06:28:19.469Z,15.27
2023-02-14T06:30:48.404Z,14.75
2023-02-14T06:33:36.148Z,15.63
2023-02-14T06:36:04.988Z,15.43
2023-02-14T06:38:33.983Z,15.60
2023-02-14T06:41:07.744Z,15.18
2023-02-14T06:43:36.650Z,16.55
2023-02-14T06:46:06.858Z,15.88
2023-02-14T06:48:44.442Z,15.88
2023-02-14T06:51:15.397Z,15.90
2023-02-14T06:53:44.970Z,16.65
2023-02-14T06:56:16.926Z,16.45
2023-02-14T06:58:45.599Z,16.88
2023-02-14T07:01:35.019Z,17.35
2023-02-14T07:04:21.192Z,17.20
2023-02-14T07:06:51.993Z,17.25
2023-02-14T07:09:25.595Z,16.08
2023-02-14T07:11:54.973Z,18.42
2023-02-14T07:14:25.333Z,18.33
2023-02-14T07:16:56.147Z,17.60
2023-02-14T07:19:26.317Z,17.23
2023-02-14T07:21:55.540Z,16.60
2023-02-14T07:24:27.499Z,16.13
2023-02-14T07:27:03.544Z,17.17
2023-02-14T07:29:45.230Z,12.85
2023-02-14T07:32:24.436Z,14.32
2023-02-14T07:35:14.408Z,14.77
2023-02-14T07:38:02.639Z,17.02
2023-02-14T07:40:33.962Z,16.10
2023-02-14T07:43:04.335Z,14.32
2023-02-14T07:45:35.921Z,15.32
2023-02-14T07:48:04.607Z,13.27
2023-02-14T07:50:43.221Z,13.70
2023-02-14T07:53:30.956Z,10.25
2023-02-14T07:56:06.437Z,13.27
2023-02-14T07:58:47.097Z,12.52
2023-02-14T08:01:18.244Z,14.30
2023-02-14T08:03:52.560Z,13.50
2023-02-14T08:06:22.766Z,12.15
2023-02-14T08:08:54.348Z,13.75
2023-02-14T08:11:40.743Z,14.60
2023-02-14T08:14:10.454Z,13.27
2023-02-14T08:16:39.800Z,12.70
2023-02-14T08:19:08.405Z,12.50
2023-02-14T08:21:58.541Z,12.50
2023-02-14T08:24:48.536Z,11.57
2023-02-14T08:27:36.114Z,11.75
2023-02-14T08:30:24.180Z,11.23
2023-02-14T08:33:12.306Z,12.23
2023-02-14T08:36:00.176Z,12.13
2023-02-14T08:38:48.584Z,12.27
2023-02-14T08:41:24.046Z,13.02
2023-02-14T08:44:10.631Z,11.63
2023-02-14T08:46:57.731Z,12.32
2023-02-14T08:49:34.203Z,12.25
2023-02-14T08:52:21.733Z,9.65
2023-02-14T08:54:58.125Z,12.73
2023-02-14T08:57:33.109Z,14.20
2023-02-14T09:00:04.905Z,12.63
2023-02-14T09:02:53.031Z,12.93
2023-02-14T09:05:23.426Z,12.10
2023-02-14T09:07:55.928Z,13.13
2023-02-14T09:10:24.947Z,12.95
2023-02-14T09:12:53.643Z,13.15
2023-02-14T09:15:22.736Z,13.50
2023-02-14T09:18:12.659Z,13.60
2023-02-14T09:21:00.503Z,14.00
2023-02-14T09:23:44.155Z,13.38
2023-02-14T09:26:32.591Z,12.95
2023-02-14T09:29:22.738Z,13.77
2023-02-14T09:31:55.404Z,12.93
2023-02-14T09:34:24.893Z,14.32
2023-02-14T09:37:11.561Z,14.85
2023-02-14T09:39:49.365Z,13.23
2023-02-14T09:42:22.140Z,12.15
2023-02-14T09:45:10.445Z,11.48
2023-02-14T09:47:47.768Z,12.30
2023-02-14T09:50:40.187Z,12.95
2023-02-14T09:53:19.483Z,11.88
2023-02-14T09:55:49.166Z,12.02
2023-02-14T09:58:22.956Z,12.60
2023-02-14T10:01:05.166Z,12.93
2023-02-14T10:04:00.972Z,12.75
2023-02-14T10:06:43.813Z,12.50
2023-02-14T10:09:42.260Z,11.75
2023-02-14T10:12:21.515Z,11.77
2023-02-14T10:14:49.843Z,10.98
2023-02-14T10:17:26.147Z,11.45
2023-02-14T10:20:02.720Z,11.30
2023-02-14T10:22:41.921Z,11.85
2023-02-14T10:25:16.430Z,11.25
2023-02-14T10:27:46.766Z,11.40
2023-02-14T10:30:17.403Z,11.07
2023-02-14T10:33:12.745Z,11.82
2023-02-14T10:35:50.026Z,11.55
2023-02-14T10:38:45.206Z,10.68
2023-02-14T10:41:23.807Z,10.90
2023-02-14T10:43:54.918Z,12.40
2023-02-14T10:46:40.827Z,11.90
2023-02-14T10:49:15.191Z,10.98
2023-02-14T10:51:54.447Z,11.38
2023-02-14T10:54:22.592Z,10.52
2023-02-14T10:56:52.749Z,12.15
2023-02-14T10:59:39.466Z,11.48
2023-02-14T11:02:09.639Z,11.73
2023-02-14T11:04:42.509Z,10.30
2023-02-14T11:07:21.434Z,9.93
2023-02-14T11:10:00.719Z,10.65
2023-02-14T11:12:45.079Z,11.57
2023-02-14T11:15:16.472Z,11.48
2023-02-14T11:17:45.180Z,11.93
2023-02-14T11:20:19.933Z,11.15
2023-02-14T11:22:49.383Z,11.20
2023-02-14T11:25:22.790Z,10.85
2023-02-14T11:27:55.982Z,11.40
2023-02-14T11:30:29.200Z,9.57
2023-02-14T11:33:13.804Z,10.82
2023-02-14T11:35:55.532Z,10.07
2023-02-14T11:38:44.805Z,11.32
2023-02-14T11:41:51.492Z,10.38
2023-02-14T11:44:43.979Z,10.52
2023-02-14T11:47:21.122Z,9.75
2023-02-14T11:49:57.258Z,10.82
2023-02-14T11:52:29.835Z,10.07
2023-02-14T11:55:01.423Z,10.60
2023-02-14T11:57:48.733Z,10.27
2023-02-14T12:00:32.624Z,10.85
2023-02-14T12:03:20.440Z,10.38
2023-02-14T12:05:53.899Z,8.70
2023-02-14T12:08:27.780Z,9.60
2023-02-14T12:11:02.902Z,10.00
2023-02-14T12:13:33.112Z,10.82
2023-02-14T12:16:03.880Z,10.07
2023-02-14T12:18:49.994Z,9.88
2023-02-14T12:21:24.490Z,10.68
2023-02-14T12:23:56.726Z,9.43
2023-02-14T12:26:37.423Z,9.60
2023-02-14T12:29:34.536Z,10.48
2023-02-14T12:32:11.817Z,9.43
2023-02-14T12:34:42.334Z,9.73
2023-02-14T12:37:45.497Z,9.10
2023-02-14T12:40:24.087Z,9.50
2023-02-14T12:43:12.883Z,10.70
2023-02-14T12:45:53.184Z,9.85
2023-02-14T12:48:24.345Z,8.05
2023-02-14T12:50:55.679Z,10.13
2023-02-14T12:53:31.978Z,9.10
2023-02-14T12:56:00.114Z,9.57
2023-02-14T12:58:38.218Z,9.57
2023-02-14T13:01:10.407Z,9.23
2023-02-14T13:03:57.635Z,10.20
2023-02-14T13:06:29.655Z,9.52
2023-02-14T13:09:12.408Z,9.93
2023-02-14T13:11:49.855Z,9.48
2023-02-14T13:14:41.474Z,9.48
2023-02-14T13:17:34.763Z,9.68
2023-02-14T13:20:06.736Z,9.88
2023-02-14T13:22:37.720Z,8.95
2023-02-14T13:25:14.366Z,10.02
2023-02-14T13:27:45.836Z,9.32
2023-02-14T13:30:28.800Z,9.30
2023-02-14T13:33:26.391Z,8.90
2023-02-14T13:36:01.552Z,8.05
2023-02-14T13:41:02.380Z,9.45
2023-02-14T13:43:56.177Z,9.77
2023-02-14T13:46:33.329Z,8.35
2023-02-14T13:49:02.775Z,8.73
2023-02-14T13:51:45.231Z,9.57
2023-02-14T13:54:32.566Z,9.23
2023-02-14T13:57:02.760Z,9.90
2023-02-14T13:59:35.153Z,8.80
2023-02-14T14:02:22.893Z,10.23
2023-02-14T14:04:56.296Z,9.05
2023-02-14T14:07:30.746Z,8.73
2023-02-14T14:10:00.048Z,9.13
2023-02-14T14:12:28.219Z,9.15
2023-02-14T14:15:05.805Z,9.60
2023-02-14T14:17:47.139Z,9.60
2023-02-14T14:20:18.730Z,9.50
2023-02-14T14:22:49.355Z,9.68
2023-02-14T14:25:33.971Z,10.20
2023-02-14T14:28:11.742Z,10.13
2023-02-14T14:30:44.850Z,10.02
2023-02-14T14:33:34.016Z,9.50
2023-02-14T14:36:26.189Z,8.68
2023-02-14T14:39:00.794Z,8.57
2023-02-14T14:41:46.270Z,9.60
2023-02-14T14:44:20.669Z,8.90
2023-02-14T14:46:49.925Z,8.48
2023-02-14T14:49:21.314Z,8.25
2023-02-14T14:51:58.739Z,9.02
2023-02-14T14:54:44.518Z,8.48
2023-02-14T14:57:18.460Z,8.73
2023-02-14T14:59:49.302Z,8.50
2023-02-14T15:02:26.346Z,9.43
2023-02-14T15:04:54.948Z,9.05
2023-02-14T15:07:33.119Z,9.05
2023-02-14T15:10:02.476Z,7.78
2023-02-14T15:12:51.011Z,9.65
2023-02-14T15:15:19.495Z,9.18
2023-02-14T15:17:50.822Z,9.25
2023-02-14T15:20:23.299Z,9.23
2023-02-14T15:22:54.550Z,9.95
2023-02-14T15:25:29.363Z,8.90
2023-02-14T15:27:58.344Z,10.03
2023-02-14T15:30:33.970Z,8.95
2023-02-14T15:33:18.228Z,9.10
2023-02-14T15:35:47.374Z,8.98
2023-02-14T15:38:33.810Z,9.07
2023-02-14T15:41:03.934Z,9.48
2023-02-14T15:43:51.660Z,9.25
2023-02-14T15:46:36.596Z,9.30
2023-02-14T15:49:10.681Z,8.95
2023-02-14T15:51:39.624Z,8.38
2023-02-14T15:54:09.644Z,9.02
2023-02-14T15:56:43.789Z,10.40
2023-02-14T15:59:19.616Z,9.18
2023-02-14T16:02:01.519Z,9.68
2023-02-14T16:04:34.474Z,8.05
2023-02-14T16:07:28.937Z,8.48
2023-02-14T16:10:15.500Z,8.27
2023-02-14T16:13:01.325Z,8.90
2023-02-14T16:15:38.778Z,8.98
2023-02-14T16:18:23.194Z,8.52
2023-02-14T16:20:51.975Z,8.32
2023-02-14T16:23:28.281Z,8.93
2023-02-14T16:25:58.298Z,8.18
2023-02-14T16:28:30.292Z,8.93
2023-02-14T16:31:10.496Z,7.45
2023-02-14T16:33:40.792Z,8.18
2023-02-14T16:36:29.386Z,7.60
2023-02-14T16:39:02.923Z,8.32
2023-02-14T16:41:54.859Z,8.38
2023-02-14T16:44:23.085Z,8.52
2023-02-14T16:47:12.267Z,8.48
2023-02-14T16:50:02.318Z,8.70
2023-02-14T16:52:46.574Z,7.43
2023-02-14T16:55:31.280Z,7.82
2023-02-14T16:58:19.484Z,7.35
2023-02-14T17:00:59.452Z,7.78
2023-02-14T17:03:32.079Z,7.18
2023-02-14T17:06:01.436Z,7.53
2023-02-14T17:08:33.136Z,10.43
2023-02-14T17:11:04.331Z,8.75
2023-02-14T17:13:41.062Z,7.50
2023-02-14T17:16:23.656Z,8.40
2023-02-14T17:19:05.753Z,9.57
2023-02-14T17:21:39.776Z,8.98
2023-02-14T17:24:11.271Z,8.75
2023-02-14T17:26:51.101Z,8.07
2023-02-14T17:29:33.171Z,7.82
2023-02-14T17:32:15.220Z,8.18
2023-02-14T17:34:45.740Z,8.13
2023-02-14T17:37:18.915Z,8.45
2023-02-14T17:39:58.649Z,7.78
2023-02-14T17:42:39.150Z,7.85
2023-02-14T17:45:15.477Z,8.32
2023-02-14T17:47:51.996Z,7.97
2023-02-14T17:50:31.311Z,6.97
2023-02-14T17:53:21.440Z,7.47
2023-02-14T17:56:08.715Z,6.88
2023-02-14T17:58:37.768Z,7.57
2023-02-14T18:01:09.520Z,10.77
2023-02-14T18:03:47.915Z,13.18
2023-02-14T18:06:29.661Z,14.38
2023-02-14T18:09:08.831Z,11.77
2023-02-14T18:11:44.364Z,11.90
2023-02-14T18:14:16.021Z,13.73
2023-02-14T18:16:52.199Z,12.32
2023-02-14T18:19:31.755Z,13.65
2023-02-14T18:22:14.773Z,13.77
2023-02-14T18:27:30.069Z,12.02
2023-02-14T18:30:01.673Z,11.30
2023-02-14T18:32:51.702Z,10.82
2023-02-14T18:35:28.043Z,10.15
2023-02-14T18:37:57.048Z,11.00
2023-02-14T18:40:27.762Z,9.27
2023-02-14T18:42:56.120Z,8.80
2023-02-14T18:45:27.526Z,9.15
2023-02-14T18:47:59.409Z,8.70
2023-02-14T18:50:28.185Z,7.80
2023-02-14T18:53:00.395Z,7.82
2023-02-14T18:55:29.807Z,8.60
2023-02-14T18:58:01.210Z,8.13
2023-02-14T19:00:33.700Z,8.32
2023-02-14T19:03:21.341Z,9.05
2023-02-14T19:05:53.652Z,9.18
2023-02-14T19:08:22.461Z,8.52
2023-02-14T19:10:50.857Z,8.43
2023-02-14T19:13:20.861Z,8.88
2023-02-14T19:15:49.847Z,8.65
2023-02-14T19:18:19.040Z,8.13
2023-02-14T19:20:49.829Z,8.68
2023-02-14T19:23:19.368Z,8.85
2023-02-14T19:25:50.144Z,9.25
2023-02-14T19:28:18.657Z,7.95
2023-02-14T19:30:47.082Z,8.65
2023-02-14T19:33:31.467Z,8.93
2023-02-14T19:36:09.338Z,9.25
2023-02-14T19:38:53.036Z,8.57
2023-02-14T19:41:38.177Z,7.97
2023-02-14T19:44:22.014Z,8.20
2023-02-14T19:46:59.887Z,8.40
2023-02-14T19:49:30.620Z,8.85
2023-02-14T19:52:00.337Z,8.88
2023-02-14T19:54:30.857Z,9.90
2023-02-14T19:56:59.385Z,10.23
2023-02-14T19:59:33.507Z,9.07
2023-02-14T20:02:02.160Z,9.52
2023-02-14T20:04:32.756Z,10.05
2023-02-14T20:07:05.457Z,9.45
2023-02-14T20:09:34.971Z,9.60
2023-02-14T20:12:07.337Z,10.40
2023-02-14T20:14:50.837Z,10.23
2023-02-14T20:17:19.865Z,10.45
2023-02-14T20:19:59.067Z,10.30
2023-02-14T20:22:46.690Z,10.20
2023-02-14T20:25:29.395Z,10.45
2023-02-14T20:27:59.156Z,10.68
2023-02-14T20:30:28.104Z,10.20
2023-02-14T20:33:16.065Z,10.45
2023-02-14T20:35:44.676Z,10.50
2023-02-14T20:38:13.627Z,11.75
2023-02-14T20:40:53.972Z,11.85
2023-02-14T20:43:37.117Z,11.25
2023-02-14T20:46:13.393Z,10.32
2023-02-14T20:48:56.053Z,10.48
2023-02-14T20:51:25.575Z,11.00
2023-02-14T20:53:55.380Z,11.73
2023-02-14T20:56:26.601Z,10.07
2023-02-14T20:59:00.530Z,10.98
2023-02-14T21:01:40.384Z,11.18
2023-02-14T21:04:19.149Z,10.98
2023-02-14T21:06:50.490Z,10.60
2023-02-14T21:09:20.867Z,12.18
2023-02-14T21:11:50.702Z,11.55
2023-02-14T21:14:20.898Z,10.73
2023-02-14T21:16:52.202Z,11.65
2023-02-14T21:19:21.264Z,11.30
2023-02-14T21:21:51.493Z,11.43
2023-02-14T21:24:24.370Z,11.93
2023-02-14T21:26:54.064Z,11.48
2023-02-14T21:29:24.138Z,11.60
2023-02-14T21:31:54.310Z,11.30
2023-02-14T21:34:23.182Z,10.95
2023-02-14T21:36:56.032Z,11.30
2023-02-14T21:39:38.432Z,11.75
2023-02-14T21:42:17.206Z,11.10
2023-02-14T21:45:14.246Z,11.95
2023-02-14T21:48:19.616Z,11.85
2023-02-14T21:50:52.030Z,12.52
2023-02-14T21:56:04.441Z,14.82
2023-02-14T21:58:35.433Z,14.88
2023-02-14T22:01:04.220Z,12.93
2023-02-14T22:03:46.583Z,13.93
2023-02-14T22:06:15.624Z,12.93
2023-02-14T22:08:46.422Z,13.48
2023-02-14T22:11:17.344Z,14.63
2023-02-14T22:13:50.602Z,13.57
2023-02-14T22:16:20.566Z,13.73
2023-02-14T22:18:53.438Z,13.20
2023-02-14T22:21:24.006Z,13.88
2023-02-14T22:23:52.487Z,14.45
2023-02-14T22:26:25.799Z,15.95
2023-02-14T22:28:56.972Z,15.65
2023-02-14T22:31:28.773Z,15.80
2023-02-14T22:34:02.233Z,16.85
2023-02-14T22:36:34.075Z,14.43
2023-02-14T22:39:03.132Z,16.05
2023-02-14T22:41:42.101Z,16.02
2023-02-14T22:44:11.223Z,18.13
2023-02-14T22:46:42.500Z,16.48
2023-02-14T22:49:11.121Z,16.88
2023-02-14T22:51:51.485Z,16.55
2023-02-14T22:54:35.896Z,16.02
2023-02-14T22:57:04.144Z,15.90
2023-02-14T22:59:35.771Z,17.77
2023-02-14T23:02:14.653Z,16.50
2023-02-14T23:04:57.874Z,16.50
2023-02-14T23:07:45.702Z,17.20
2023-02-14T23:10:26.487Z,16.98
2023-02-14T23:13:14.504Z,16.42
2023-02-14T23:16:07.000Z,19.40
2023-02-14T23:18:56.395Z,17.05
2023-02-14T23:21:45.383Z,18.02
2023-02-14T23:24:16.505Z,18.65
2023-02-14T23:26:52.101Z,17.13
2023-02-14T23:29:35.705Z,18.00
2023-02-14T23:32:07.602Z,16.35
2023-02-14T23:34:41.013Z,15.88
2023-02-14T23:37:11.730Z,15.43
2023-02-14T23:39:43.072Z,15.32
2023-02-14T23:42:14.630Z,15.77
2023-02-14T23:44:44.326Z,17.73
2023-02-14T23:47:13.669Z,16.45
2023-02-14T23:49:43.151Z,16.58
2023-02-14T23:52:14.816Z,18.23
2023-02-14T23:54:49.781Z,15.32
2023-02-14T23:57:25.695Z,16.45
2023-02-14T23:59:56.034Z,18.52
